Flight Track Log - Related Links

Times and Time Zones

All times are in EDT time to prevent confusion due to time zone crossing. See the CSZ9820 flight status page for this flight to view local times or setup timezone preferences in your user account.

Time Position Orientation Groundspeed Altitude Reporting Facility
EDT Latitude Longitude Course Direction KTS MPH feet Rate Location/Type
Thu 12:48:00 PM 30.8450 121.4825 222° Southwest  Level Estimated
Thu 12:49:00 PM 30.7704 121.4053 222° Southwest  Level Estimated
Thu 12:50:00 PM 30.6958 121.3282 222° Southwest  Level Estimated
Thu 12:51:00 PM 30.6211 121.2513 222° Southwest  Level Estimated
Thu 12:52:00 PM 30.5464 121.1745 222° Southwest  Level Estimated
Thu 12:53:00 PM 30.4717 121.0978 221° Southwest  Level Estimated
Thu 12:54:00 PM 30.3969 121.0212 221° Southwest  Level Estimated
Thu 12:55:00 PM 30.3220 120.9448 221° Southwest  Level Estimated
Thu 12:56:00 PM 30.2471 120.8684 221° Southwest  Level Estimated
Thu 12:56:51 PM 30.9500 120.6460 221° Southwest 398 458 27,900  Level FlightAware ADS-B
Thu 12:57:00 PM 30.1722 120.7922 221° Southwest  Level Estimated
Thu 12:57:33 PM 30.9290 120.5590 254° West 406 467 28,800  Level FlightAware ADS-B
Thu 12:58:13 PM 30.9090 120.4800 254° West 413 475 29,700 1,219 Climbing FlightAware ADS-B
Thu 12:58:37 PM 30.8880 120.4330 243° Southwest 421 484 30,100 1,200 Climbing FlightAware ADS-B
Thu 12:59:13 PM 30.8300 120.3850 215° Southwest 429 494 30,900 1,143 Climbing FlightAware ADS-B
Thu 01:00:01 PM 30.7490 120.3290 211° Southwest 437 503 31,700 933 Climbing FlightAware ADS-B
Thu 01:00:43 PM 30.6800 120.2700 216° Southwest 444 511 32,300 647 Climbing FlightAware ADS-B
Thu 01:01:43 PM 30.6090 120.1660 232° Southwest 448 516 32,800 957 Climbing FlightAware ADS-B
Thu 01:01:52 PM 30.5790 120.1450 211° Southwest 457 526 33,400 1,286 Climbing FlightAware ADS-B
Thu 01:02:39 PM 30.4920 120.0860 210° Southwest 467 537 34,000 506 Climbing FlightAware ADS-B
Thu 01:03:15 PM 30.4250 120.0390 211° Southwest 479 551 34,100 83 Climbing FlightAware ADS-B
Thu 01:03:51 PM 30.3590 119.9920 212° Southwest 484 557 34,100  Level FlightAware ADS-B
Thu 01:04:51 PM 30.3160 119.9630 210° Southwest 485 558 34,100  Level FlightAware ADS-B
Thu 01:05:27 PM 30.2560 119.9230 210° Southwest 485 558 34,100  Level FlightAware ADS-B
Thu 01:06:14 PM 30.1790 119.8710 210° Southwest 485 558 34,100  Level FlightAware ADS-B
Thu 01:06:51 PM 30.1170 119.8310 209° Southwest 485 558 34,100  Level FlightAware ADS-B
Thu 01:07:40 PM 30.0360 119.7770 210° Southwest 485 558 34,100  Level FlightAware ADS-B
Thu 01:08:17 PM 29.9750 119.7360 210° Southwest 485 558 34,100  Level FlightAware ADS-B
Thu 01:08:53 PM 29.9160 119.6960 210° Southwest 485 558 34,100  Level FlightAware ADS-B
Thu 01:09:31 PM 29.8530 119.6550 209° Southwest 485 558 34,100  Level FlightAware ADS-B
Thu 01:10:19 PM 29.7740 119.6020 210° Southwest 485 558 34,100  Level FlightAware ADS-B
Thu 01:10:55 PM 29.7140 119.5620 210° Southwest 485 558 34,100  Level FlightAware ADS-B
Thu 01:11:32 PM 29.6530 119.5220 210° Southwest 485 558 34,100  Level FlightAware ADS-B
Thu 01:12:47 PM 29.5290 119.4390 210° Southwest 485 558 34,100  Level FlightAware ADS-B
Thu 01:13:11 PM 29.4900 119.4130 210° Southwest 485 558 34,100  Level FlightAware ADS-B
Thu 01:13:59 PM 29.4100 119.3610 210° Southwest 485 558 34,100  Level FlightAware ADS-B
Thu 01:16:00 PM 29.2506 119.2202 218° Southwest  Level Estimated
Thu 01:17:00 PM 29.1715 119.1506 218° Southwest  Level Estimated
Thu 01:18:00 PM 29.0923 119.0810 218° Southwest  Level Estimated
Thu 01:19:00 PM 29.0131 119.0116 217° Southwest  Level Estimated
Thu 01:20:00 PM 28.9339 118.9423 217° Southwest  Level Estimated
Thu 01:21:00 PM 28.8547 118.8730 217° Southwest  Level Estimated
Thu 01:22:00 PM 28.7754 118.8039 217° Southwest  Level Estimated
Thu 01:23:00 PM 28.6961 118.7349 217° Southwest  Level Estimated
Thu 01:24:00 PM 28.6167 118.6660 217° Southwest  Level Estimated
Thu 01:25:00 PM 28.5373 118.5972 217° Southwest  Level Estimated
Thu 01:26:00 PM 28.4579 118.5285 217° Southwest  Level Estimated
Thu 01:27:00 PM 28.3784 118.4599 217° Southwest  Level Estimated
Thu 01:28:00 PM 28.2989 118.3914 217° Southwest  Level Estimated
Thu 01:29:00 PM 28.2194 118.3230 217° Southwest  Level Estimated
Thu 01:30:00 PM 28.1398 118.2547 217° Southwest  Level Estimated
Thu 01:31:00 PM 28.0602 118.1865 217° Southwest  Level Estimated
Thu 01:32:00 PM 27.9806 118.1184 217° Southwest  Level Estimated
Thu 01:33:00 PM 27.9009 118.0505 217° Southwest  Level Estimated
Thu 01:34:00 PM 27.8212 117.9826 217° Southwest  Level Estimated
Thu 01:35:00 PM 27.7415 117.9148 217° Southwest  Level Estimated
Thu 01:36:00 PM 27.6617 117.8471 217° Southwest  Level Estimated
Thu 01:37:00 PM 27.5819 117.7795 217° Southwest  Level Estimated
Thu 01:38:00 PM 27.5021 117.7120 217° Southwest  Level Estimated
Thu 01:39:00 PM 27.4222 117.6446 217° Southwest  Level Estimated
Thu 01:40:00 PM 27.3423 117.5773 217° Southwest  Level Estimated
Thu 01:41:00 PM 27.2624 117.5101 217° Southwest  Level Estimated
Thu 01:42:00 PM 27.1824 117.4430 217° Southwest  Level Estimated
Thu 01:43:00 PM 27.1024 117.3760 217° Southwest  Level Estimated
Thu 01:44:00 PM 27.0224 117.3091 217° Southwest  Level Estimated
Thu 01:45:00 PM 26.9424 117.2423 217° Southwest  Level Estimated
Thu 01:46:00 PM 26.8623 117.1756 217° Southwest  Level Estimated
Thu 01:47:00 PM 26.7822 117.1089 217° Southwest  Level Estimated
Thu 01:48:00 PM 26.7020 117.0424 217° Southwest  Level Estimated
Thu 01:49:00 PM 26.6218 116.9760 217° Southwest  Level Estimated
Thu 01:50:00 PM 26.5416 116.9096 217° Southwest  Level Estimated
Thu 01:51:00 PM 26.4614 116.8434 216° Southwest  Level Estimated
Thu 01:52:00 PM 26.3811 116.7772 216° Southwest  Level Estimated
Thu 01:53:00 PM 26.3008 116.7111 216° Southwest  Level Estimated
Thu 01:54:00 PM 26.2205 116.6451 216° Southwest  Level Estimated
Thu 01:54:40 PM 25.7580 114.7680 216° Southwest 451 519 34,100  Level FlightAware ADS-B
Thu 01:55:00 PM 26.1401 116.5792 216° Southwest  Level Estimated
Thu 01:55:37 PM 25.6510 114.7420 192° South 449 517 34,100  Level FlightAware ADS-B
Thu 01:56:15 PM 25.5660 114.7200 193° South 444 511 34,100  Level FlightAware ADS-B
Thu 01:57:01 PM 25.4740 114.6970 193° South 445 512 34,100  Level FlightAware ADS-B
Thu 01:57:52 PM 25.3710 114.6720 192° South 450 518 34,100  Level FlightAware ADS-B
Thu 01:58:36 PM 25.2810 114.6500 192° South 450 518 34,100  Level FlightAware ADS-B
Thu 01:59:14 PM 25.2030 114.6300 193° South 450 518 34,100  Level FlightAware ADS-B
Thu 01:59:54 PM 25.1210 114.6100 192° South 451 519 34,100 -73 Level FlightAware ADS-B
Thu 02:00:36 PM 25.0350 114.5890 192° South 451 519 34,000 -593 Descending FlightAware ADS-B
Thu 02:01:15 PM 24.9560 114.5700 192° South 451 519 33,300 -1,040 Descending FlightAware ADS-B
Thu 02:01:51 PM 24.8830 114.5520 193° South 459 528 32,700 -975 Descending FlightAware ADS-B
Thu 02:02:35 PM 24.7910 114.5290 193° South 458 527 32,000 -963 Descending FlightAware ADS-B
Thu 02:03:12 PM 24.7150 114.5110 192° South 457 526 31,400 -977 Descending FlightAware ADS-B
Thu 02:04:01 PM 24.6110 114.4850 193° South 455 524 30,600 -1,011 Descending FlightAware ADS-B
Thu 02:04:41 PM 24.5310 114.4660 192° South 452 520 29,900 -1,050 Descending FlightAware ADS-B
Thu 02:05:21 PM 24.4470 114.4450 193° South 458 527 29,200 -951 Descending FlightAware ADS-B
Thu 02:06:03 PM 24.3690 114.4030 206° Southwest 465 535 28,600 -975 Descending FlightAware ADS-B
Thu 02:06:41 PM 24.3190 114.3310 233° Southwest 469 540 27,900 -1,275 Descending FlightAware ADS-B
Thu 02:07:23 PM 24.2730 114.2460 239° Southwest 464 534 26,900 -2,071 Descending FlightAware ADS-B
Thu 02:08:05 PM 24.2260 114.1600 239° Southwest 455 524 25,000 -1,714 Descending FlightAware ADS-B
Thu 02:09:01 PM 24.1730 114.0640 239° Southwest 447 514 24,100 -2,467 Descending FlightAware ADS-B
Thu 02:09:35 PM 24.1320 113.9900 239° Southwest 431 496 21,300 -3,357 Descending FlightAware ADS-B
Thu 02:10:25 PM 24.0690 113.9080 230° Southwest 406 467 19,400 -1,793 Descending FlightAware ADS-B
Thu 02:11:02 PM 24.0190 113.8580 222° Southwest 405 466 18,700 -1,000 Descending FlightAware ADS-B
Thu 02:11:43 PM 23.9690 113.8090 222° Southwest 375 432 18,100 -690 Descending FlightAware ADS-B
Thu 02:12:29 PM 23.9080 113.7490 222° Southwest 330 380 17,700 -279 Descending FlightAware ADS-B
Thu 02:13:09 PM 23.8640 113.7070 221° Southwest 311 358 17,700  Level FlightAware ADS-B
Thu 02:13:51 PM 23.8180 113.6610 222° Southwest 317 365 17,700 -483 Level FlightAware ADS-B
Thu 02:14:36 PM 23.7750 113.6080 228° Southwest 314 361 17,000 -907 Descending FlightAware ADS-B
Thu 02:15:17 PM 23.7390 113.5590 231° Southwest 314 361 16,400 -935 Descending FlightAware ADS-B
Thu 02:15:53 PM 23.7050 113.5120 232° Southwest 305 351 15,800 -538 Descending FlightAware ADS-B
Thu 02:16:35 PM 23.6680 113.4630 231° Southwest 301 346 15,700 -77 Descending FlightAware ADS-B
Thu 02:17:11 PM 23.6390 113.4180 235° Southwest 304 350 15,700  Level FlightAware ADS-B
Thu 02:17:59 PM 23.6000 113.3590 234° Southwest 302 348 15,700 -477 Level FlightAware ADS-B
Thu 02:18:39 PM 23.5660 113.3120 232° Southwest 300 345 15,000 -1,116 Descending FlightAware ADS-B
Thu 02:19:25 PM 23.5230 113.2620 227° Southwest 290 334 14,100 -907 Descending FlightAware ADS-B
Thu 02:20:05 PM 23.4870 113.2190 228° Southwest 280 322 13,700 -568 Descending FlightAware ADS-B
Thu 02:20:39 PM 23.4550 113.1900 220° Southwest 276 318 13,400 -462 Descending FlightAware ADS-B
Thu 02:21:23 PM 23.4040 113.1630 206° Southwest 272 313 13,100 -429 Descending FlightAware ADS-B
Thu 02:22:03 PM 23.3580 113.1440 201° Southwest 267 307 12,800 -500 Descending FlightAware ADS-B
Thu 02:22:47 PM 23.3040 113.1290 194° South 270 311 12,400 -500 Descending FlightAware ADS-B
Thu 02:23:27 PM 23.2550 113.1330 176° South 262 302 12,100 -424 Descending FlightAware ADS-B
Thu 02:24:12 PM 23.2010 113.1380 175° South 261 300 11,800 -220 Descending FlightAware ADS-B
Thu 02:24:49 PM 23.1580 113.1530 162° South 263 303 11,800  Level FlightAware ADS-B
Thu 02:25:05 PM 23.1470 113.1690 127° Southeast 265 305 11,800  Level FlightAware ADS-B
Thu 02:25:41 PM 23.1290 113.2130 114° Southeast 261 300 11,800  Level FlightAware ADS-B
Thu 02:26:23 PM 23.1080 113.2640 114° Southeast 261 300 11,800  Level FlightAware ADS-B
Thu 02:27:05 PM 23.0880 113.3140 113° Southeast 254 292 11,800  Level FlightAware ADS-B
Thu 02:27:41 PM 23.0710 113.3550 114° Southeast 249 287 11,800  Level FlightAware ADS-B
Thu 02:28:21 PM 23.0520 113.4000 115° Southeast 247 284 11,800  Level FlightAware ADS-B
Thu 02:29:03 PM 23.0330 113.4480 113° Southeast 246 283 11,800  Level FlightAware ADS-B
Thu 02:29:37 PM 23.0170 113.4860 115° Southeast 239 275 11,800  Level FlightAware ADS-B
Thu 02:30:21 PM 22.9970 113.5350 114° Southeast 242 278 11,800  Level FlightAware ADS-B
Thu 02:31:03 PM 22.9790 113.5820 113° Southeast 244 281 11,800  Level FlightAware ADS-B
Thu 02:31:43 PM 22.9620 113.6260 113° Southeast 241 277 11,800 -73 Level FlightAware ADS-B
Thu 02:32:25 PM 22.9440 113.6750 112° Southeast 244 281 11,700 -419 Descending FlightAware ADS-B
Thu 02:33:09 PM 22.9250 113.7260 112° Southeast 246 283 11,200 -628 Descending FlightAware ADS-B
Thu 02:33:51 PM 22.9080 113.7740 111° Southeast 244 281 10,800 -308 Descending FlightAware ADS-B
Thu 02:34:27 PM 22.8920 113.8140 113° Southeast 244 281 10,800  Level FlightAware ADS-B
Thu 02:34:53 PM 22.8830 113.8440 108° East 249 287 10,800  Level FlightAware ADS-B
Thu 02:35:21 PM 22.8970 113.8770 65° Northeast 271 312 10,800  Level FlightAware ADS-B
Thu 02:35:37 PM 22.9140 113.8870 28° Northeast 277 319 10,800  Level FlightAware ADS-B
Thu 02:36:05 PM 22.9480 113.8800 349° North 272 313 10,800  Level FlightAware ADS-B
Thu 02:36:33 PM 22.9700 113.8510 309° West 262 302 10,800  Level FlightAware ADS-B
Thu 02:36:43 PM 22.9720 113.8380 279° West 256 295 10,800  Level FlightAware ADS-B
Thu 02:37:15 PM 22.9560 113.8060 242° Southwest 232 267 10,800  Level FlightAware ADS-B
Thu 02:37:27 PM 22.9430 113.8020 196° South 231 266 10,800  Level FlightAware ADS-B
Thu 02:37:55 PM 22.9180 113.8150 154° Southeast 240 276 10,800  Level FlightAware ADS-B
Thu 02:38:23 PM 22.9050 113.8480 113° Southeast 249 287 10,800  Level FlightAware ADS-B
Thu 02:38:52 PM 22.9100 113.8830 81° East 263 303 10,800  Level FlightAware ADS-B
Thu 02:39:35 PM 22.9470 113.9210 43° Northeast 266 306 10,800  Level FlightAware ADS-B
Thu 02:40:03 PM 22.9800 113.9130 347° North 262 302 10,800  Level FlightAware ADS-B
Thu 02:40:43 PM 23.0170 113.8800 321° Northwest 252 290 10,800  Level FlightAware ADS-B
Thu 02:40:57 PM 23.0220 113.8650 290° West 243 280 10,800  Level FlightAware ADS-B
Thu 02:41:27 PM 23.0190 113.8290 265° West 237 273 10,800  Level FlightAware ADS-B
Thu 02:41:39 PM 23.0130 113.8160 243° Southwest 230 265 10,800  Level FlightAware ADS-B
Thu 02:41:53 PM 23.0020 113.8070 217° Southwest 222 255 10,800  Level FlightAware ADS-B
Thu 02:42:05 PM 22.9900 113.8040 193° South 219 252 10,800  Level FlightAware ADS-B
Thu 02:42:35 PM 22.9650 113.8220 146° Southeast 231 266 10,800  Level FlightAware ADS-B
Thu 02:42:49 PM 22.9590 113.8370 113° Southeast 237 273 10,800  Level FlightAware ADS-B
Thu 02:43:01 PM 22.9570 113.8520 98° East 244 281 10,800  Level FlightAware ADS-B
Thu 02:43:43 PM 22.9720 113.9010 72° East 258 297 10,800  Level FlightAware ADS-B
Thu 02:43:59 PM 22.9880 113.9120 32° Northeast 263 303 10,800  Level FlightAware ADS-B
Thu 02:44:11 PM 23.0020 113.9160 15° North 266 306 10,800  Level FlightAware ADS-B
Thu 02:44:39 PM 23.0330 113.9030 339° North 258 297 10,800  Level FlightAware ADS-B
Thu 02:44:55 PM 23.0410 113.8850 296° West 246 283 10,800  Level FlightAware ADS-B
Thu 02:45:40 PM 23.0330 113.8340 260° West 231 266 10,800  Level FlightAware ADS-B
Thu 02:45:52 PM 23.0250 113.8240 229° Southwest 224 258 10,800  Level FlightAware ADS-B
Thu 02:46:08 PM 23.0090 113.8160 205° Southwest 221 254 10,800  Level FlightAware ADS-B
Thu 02:47:04 PM 22.9550 113.8230 173° South 226 260 10,800  Level FlightAware ADS-B
Thu 02:47:11 PM 22.9510 113.8290 126° Southeast 229 264 10,800  Level FlightAware ADS-B
Thu 02:47:24 PM 22.9470 113.8420 108° East 237 273 10,800  Level FlightAware ADS-B
Thu 02:48:10 PM 22.9460 113.8830 92° East 241 277 10,800 -467 Level FlightAware ADS-B
Thu 02:48:54 PM 22.9570 113.9430 79° East 260 299 10,100 -1,179 Descending FlightAware ADS-B
Thu 02:49:06 PM 22.9770 113.9540 27° Northeast 268 308 9,700 -1,650 Descending FlightAware ADS-B
Thu 02:49:34 PM 23.0080 113.9450 345° North 272 313 9,000 -1,435 Descending FlightAware ADS-B
Thu 02:49:52 PM 23.0280 113.9290 324° Northwest 273 314 8,600 -1,231 Descending FlightAware ADS-B
Thu 02:50:13 PM 23.0480 113.9110 320° Northwest 270 311 8,200 -1,171 Descending FlightAware ADS-B
Thu 02:50:33 PM 23.0660 113.8920 316° Northwest 264 304 7,800 -1,241 Descending FlightAware ADS-B
Thu 02:50:42 PM 23.0700 113.8810 292° West 255 293 7,600 -1,135 Descending FlightAware ADS-B
Thu 02:51:10 PM 23.0640 113.8500 258° West 214 246 7,100 -982 Descending FlightAware ADS-B
Thu 02:51:37 PM 23.0470 113.8300 227° Southwest 200 230 6,700 -800 Descending FlightAware ADS-B
Thu 02:52:10 PM 23.0330 113.8150 225° Southwest 194 223 6,300 -947 Descending FlightAware ADS-B
Thu 02:52:34 PM 23.0190 113.7990 226° Southwest 192 221 5,800 -1,463 Descending FlightAware ADS-B
Thu 02:52:51 PM 23.0040 113.7830 224° Southwest 188 216 5,300 -1,317 Descending FlightAware ADS-B
Thu 02:53:15 PM 22.9850 113.7640 223° Southwest 178 205 4,900 -857 Descending FlightAware ADS-B
Thu 02:53:40 PM 22.9710 113.7480 226° Southwest 175 201 4,600 -808 Descending FlightAware ADS-B
Thu 02:54:07 PM 22.9560 113.7310 226° Southwest 176 203 4,200 -923 Descending FlightAware ADS-B
Thu 02:54:19 PM 22.9490 113.7230 226° Southwest 175 201 4,000 -600 Descending FlightAware ADS-B
Thu 02:54:47 PM 22.9340 113.7050 228° Southwest 170 196 3,800 -517 Descending FlightAware ADS-B
Thu 02:55:17 PM 22.9160 113.6920 214° Southwest 158 182 3,500 -638 Descending FlightAware ADS-B
Thu 02:55:34 PM 22.9030 113.6900 188° South 159 183 3,300 -429 Descending FlightAware ADS-B
Thu 02:55:59 PM 22.8840 113.6880 186° South 155 178 3,200  Descending FlightAware ADS-B
Thu 02:56:27 PM 22.8650 113.6870 183° South 150 173 3,300  Climbing FlightAware ADS-B
Thu 02:56:56 PM 22.8450 113.6850 185° South 149 171 3,200 -211 Descending FlightAware ADS-B
Thu 02:57:24 PM 22.8260 113.6910 164° South 156 180 3,100 -231 Descending FlightAware ADS-B
Thu 02:57:48 PM 22.8110 113.6990 154° Southeast 156 180 3,000 -327 Descending FlightAware ADS-B
Thu 02:58:19 PM 22.7910 113.7100 153° Southeast 144 166 2,800 -367 Descending FlightAware ADS-B
Thu 02:58:37 PM 22.7810 113.7150 155° Southeast 135 155 2,700 -391 Descending FlightAware ADS-B
Thu 02:59:05 PM 22.7650 113.7240 153° Southeast 127 146 2,500 -429 Descending FlightAware ADS-B
Thu 02:59:33 PM 22.7510 113.7320 152° Southeast 129 148 2,300 -500 Descending FlightAware ADS-B
Thu 02:59:53 PM 22.7400 113.7380 153° Southeast 127 146 2,100 -692 Descending FlightAware ADS-B
Thu 03:00:25 PM 22.7230 113.7470 154° Southeast 131 151 1,700 -682 Descending FlightAware ADS-B
Thu 03:00:37 PM 22.7160 113.7510 152° Southeast 134 154 1,600 -682 Descending FlightAware ADS-B
Thu 03:01:09 PM 22.6980 113.7610 153° Southeast 139 160 1,200 -677 Descending FlightAware ADS-B
Thu 03:01:39 PM 22.6810 113.7700 154° Southeast 139 160 900 -667 Descending FlightAware ADS-B
Thu 03:02:03 PM 22.6670 113.7780 152° Southeast 141 162 600 -692 Descending FlightAware ADS-B
Thu 03:02:31 PM 22.6500 113.7870 154° Southeast 139 160 300 -643 Descending FlightAware ADS-B
Thu 03:03:00 PM 22.6400 113.7930 151° Southeast 55 63 -621 Descending FlightAware ADS-B
Thu 03:03:25 PM 22.6360 113.7950 155° Southeast 26 30  Level FlightAware ADS-B
Thu 03:03:45 PM 22.6350 113.7970 118° Southeast 15 17  Level FlightAware ADS-B
Thu 03:04:39 PM 22.6360 113.7980 43° Northeast 27 31  Level FlightAware ADS-B
Thu 03:04:53 PM 22.6360 113.7990 90° East 29 33  Level FlightAware ADS-B
Thu 03:05:35 PM 22.6380 113.8010 43° Northeast 28 32  Level FlightAware ADS-B
Thu 03:06:27 PM 22.6400 113.8060 67° East 31 36  Level FlightAware ADS-B
Thu 03:07:11 PM 22.6400 113.8070 90° East 16 18  Level FlightAware ADS-B
Thu 03:07:38 PM 22.6410 113.8090 62° Northeast 27 31  Level FlightAware ADS-B
Thu 03:07:50 PM 22.6410 113.8100 90° East 26 30  Level FlightAware ADS-B

Login

Don't have an account? Register now (free) for customized features, flight alerts, and more!